Time;durP1;ratioP1;P1;durP2;ratioP2;P2;SDS_P1;SDS_P2;PMS_P1;PMS_P2;Temp;Humidity;BMP_temperature;BMP_pressure;BME280_temperature;BME280_humidity;BME280_pressure;Samples;Min_cycle;Max_cycle;Signal;HPM_P1;HPM_P2
2023/12/07 00:01:26;;;;;;;64.35;40.70;;;5.80;99.90;;;6.12;91.10;101798.19;5094793;28;20052;-68
2023/12/07 00:03:55;;;;;;;79.45;44.17;;;5.80;99.90;;;6.02;91.63;101783.91;5094209;28;20055;-69
2023/12/07 00:06:24;;;;;;;77.90;45.47;;;5.80;99.90;;;5.97;92.12;101790.78;5093899;28;20052;-68
2023/12/07 00:08:53;;;;;;;67.70;41.17;;;5.70;99.90;;;5.94;92.32;101795.91;5094111;28;20051;-68
2023/12/07 00:11:23;;;;;;;70.07;41.17;;;5.70;99.90;;;5.92;92.75;101792.34;5094058;28;20073;-68
2023/12/07 00:13:52;;;;;;;63.70;39.60;;;5.70;99.90;;;5.96;92.75;101788.97;5094360;28;20040;-68
2023/12/07 00:16:20;;;;;;;59.50;38.47;;;5.70;99.90;;;6.05;92.92;101789.25;5094170;28;20435;-68
2023/12/07 00:18:49;;;;;;;64.85;38.05;;;5.70;99.90;;;6.12;92.62;101783.31;5094214;28;20054;-68
2023/12/07 00:21:17;;;;;;;63.25;37.17;;;5.80;99.90;;;6.07;92.00;101787.56;5076004;28;20048;-68
2023/12/07 00:23:47;;;;;;;66.53;39.50;;;5.80;99.90;;;6.02;92.20;101778.66;5094122;28;20097;-68
2023/12/07 00:26:15;;;;;;;64.18;37.78;;;5.80;99.90;;;6.00;91.87;101782.09;5093877;28;20090;-69
2023/12/07 00:28:43;;;;;;;74.80;39.58;;;5.80;99.90;;;5.97;92.10;101774.13;5094031;28;20051;-68
2023/12/07 00:31:12;;;;;;;78.60;40.22;;;5.70;99.90;;;5.88;92.28;101787.88;5094024;28;20116;-68
2023/12/07 00:33:41;;;;;;;72.07;37.92;;;5.60;99.90;;;5.81;92.61;101791.13;5094177;28;20486;-68
2023/12/07 00:36:10;;;;;;;63.60;35.85;;;5.50;99.90;;;5.79;92.92;101771.81;5094285;28;20445;-69
2023/12/07 00:38:38;;;;;;;52.53;29.33;;;5.50;99.90;;;5.71;93.34;101764.59;5093580;28;20070;-69
2023/12/07 00:41:08;;;;;;;45.72;28.63;;;5.50;99.90;;;5.79;94.21;101773.56;5093527;28;20048;-68
2023/12/07 00:43:36;;;;;;;47.72;28.02;;;5.50;99.90;;;5.81;94.06;101761.34;5093540;28;20040;-68
2023/12/07 00:46:07;;;;;;;47.58;26.50;;;5.60;99.90;;;5.94;93.90;101772.28;5093878;28;20054;-68
2023/12/07 00:48:36;;;;;;;44.60;25.70;;;5.70;99.90;;;5.90;93.70;101775.69;5093362;28;20101;-68
2023/12/07 00:51:06;;;;;;;48.83;29.05;;;5.60;99.90;;;5.86;93.60;101767.69;5093365;28;20043;-68
2023/12/07 00:53:34;;;;;;;47.67;27.90;;;5.60;99.90;;;5.78;93.53;101769.16;5093348;28;20141;-69
2023/12/07 00:56:04;;;;;;;38.47;23.77;;;5.50;99.90;;;5.57;94.14;101750.16;5093163;28;20549;-69
2023/12/07 00:58:34;;;;;;;37.92;23.40;;;5.50;99.90;;;5.83;94.25;101778.03;5093530;28;20505;-68
2023/12/07 01:01:03;;;;;;;33.72;21.52;;;5.60;99.90;;;5.88;94.20;101787.00;5094042;28;20048;-69
2023/12/07 01:03:31;;;;;;;29.88;20.33;;;5.60;99.90;;;5.89;94.15;101789.66;5075165;28;20051;-69
2023/12/07 01:06:00;;;;;;;28.27;19.42;;;5.60;99.90;;;5.91;93.78;101787.06;5092890;28;20047;-69
2023/12/07 01:08:28;;;;;;;30.73;20.38;;;5.60;99.90;;;5.77;93.92;101784.00;5075168;28;20480;-69
2023/12/07 01:10:56;;;;;;;29.40;20.48;;;5.60;99.90;;;5.84;94.24;101793.00;5093335;28;20056;-68
2023/12/07 01:13:25;;;;;;;28.50;18.35;;;5.60;99.90;;;5.90;94.38;101791.44;5093000;28;20504;-69
2023/12/07 01:15:55;;;;;;;25.15;18.13;;;5.60;99.90;;;5.93;94.20;101799.41;5093211;28;20051;-69
2023/12/07 01:18:23;;;;;;;26.65;18.70;;;5.60;99.90;;;5.92;93.96;101794.97;5093550;28;20044;-68
2023/12/07 01:20:52;;;;;;;30.42;20.70;;;5.70;99.90;;;5.84;93.76;101793.91;5092914;28;20047;-68
2023/12/07 01:23:20;;;;;;;29.85;19.77;;;5.60;99.90;;;5.49;94.01;101789.28;5092905;28;20416;-69
2023/12/07 01:25:49;;;;;;;33.63;20.88;;;5.40;99.90;;;5.20;95.35;101792.72;5093308;28;20051;-69
2023/12/07 01:28:17;;;;;;;26.13;18.35;;;5.10;99.90;;;5.40;96.10;101791.63;5093111;28;20051;-69
2023/12/07 01:30:45;;;;;;;22.23;17.35;;;5.10;99.90;;;5.34;96.58;101788.81;5074856;28;20143;-68
2023/12/07 01:33:15;;;;;;;24.63;17.70;;;5.10;99.90;;;5.26;97.19;101785.06;5074944;28;20071;-68
2023/12/07 01:35:44;;;;;;;23.75;16.92;;;5.00;99.90;;;5.21;97.55;101776.13;5092764;28;20040;-68
2023/12/07 01:38:12;;;;;;;20.33;16.23;;;5.00;99.90;;;5.28;97.74;101784.25;5092833;28;20040;-69
2023/12/07 01:40:40;;;;;;;29.90;17.00;;;5.00;99.90;;;5.31;97.90;101783.44;5092599;28;20477;-69
2023/12/07 01:43:12;;;;;;;22.80;16.52;;;5.10;99.90;;;5.23;98.21;101772.72;5092667;28;20528;-69
2023/12/07 01:45:41;;;;;;;22.10;16.85;;;5.00;99.90;;;5.21;98.47;101781.38;5093100;28;20036;-68
2023/12/07 01:48:09;;;;;;;24.47;17.50;;;5.00;99.90;;;5.22;98.80;101775.31;5092593;28;20059;-69
2023/12/07 01:50:39;;;;;;;26.30;18.13;;;5.00;99.90;;;5.16;98.85;101775.13;5092530;28;20052;-69
2023/12/07 01:53:08;;;;;;;21.85;17.08;;;5.00;99.90;;;5.18;99.36;101778.66;5092916;28;20043;-68
2023/12/07 01:55:37;;;;;;;23.17;17.17;;;5.00;99.90;;;5.12;99.19;101767.97;5092828;28;20036;-68
2023/12/07 01:58:06;;;;;;;24.33;18.33;;;4.90;99.90;;;5.24;99.12;101781.50;5092432;28;20036;-69
2023/12/07 02:00:35;;;;;;;22.23;17.63;;;5.00;99.90;;;5.22;98.71;101783.19;5096950;28;20097;-68
2023/12/07 02:03:06;;;;;;;30.30;19.30;;;5.00;99.90;;;5.17;98.57;101780.41;5097121;28;20040;-68
2023/12/07 02:05:36;;;;;;;28.38;19.70;;;5.00;99.90;;;5.25;98.62;101783.25;5096853;28;20122;-68
2023/12/07 02:08:06;;;;;;;24.80;18.17;;;5.10;99.90;;;5.28;98.35;101783.38;5096615;28;20067;-68
2023/12/07 02:10:35;;;;;;;24.02;18.30;;;5.10;99.90;;;5.44;98.22;101777.75;5096783;28;20040;-68
2023/12/07 02:13:04;;;;;;;23.83;17.95;;;5.20;99.90;;;5.36;98.08;101808.13;5096449;28;20040;-68
2023/12/07 02:15:32;;;;;;;25.52;17.80;;;5.20;99.90;;;5.30;98.12;101781.69;5096618;28;20089;-68
2023/12/07 02:18:09;;;;;;;25.33;18.23;;;5.10;99.90;;;5.27;98.38;101781.56;5078367;28;20047;-69
2023/12/07 02:20:45;;;;;;;26.13;18.03;;;5.10;99.90;;;4.98;98.74;101787.63;5096600;28;20058;-69
2023/12/07 02:23:18;;;;;;;25.08;17.25;;;4.80;99.90;;;5.03;100.00;101770.31;5096558;28;20032;-69
2023/12/07 02:26:10;;;;;;;26.48;18.65;;;4.80;99.90;;;5.33;99.26;101787.00;5096176;28;20043;-68
2023/12/07 02:28:39;;;;;;;22.63;16.03;;;5.10;99.90;;;5.38;98.57;101796.81;5096433;28;20044;-68
2023/12/07 02:31:08;;;;;;;28.20;17.05;;;5.20;99.90;;;5.32;98.35;101790.50;5096924;28;20127;-68
2023/12/07 02:33:36;;;;;;;20.05;15.98;;;5.10;99.90;;;5.33;98.37;101795.78;5096007;28;20051;-68
2023/12/07 02:36:06;;;;;;;22.43;15.80;;;5.10;99.90;;;5.25;98.27;101791.13;5096222;28;20048;-69
2023/12/07 02:38:36;;;;;;;21.27;15.77;;;5.10;99.90;;;5.15;98.38;101789.09;5077971;28;20048;-68
2023/12/07 02:41:06;;;;;;;19.63;15.70;;;5.00;99.90;;;5.13;99.11;101782.91;5096144;28;20048;-68
2023/12/07 02:43:35;;;;;;;25.02;16.65;;;4.90;99.90;;;5.07;99.04;101783.56;5095888;28;20386;-68
2023/12/07 02:46:05;;;;;;;21.60;16.70;;;4.90;99.90;;;4.94;99.42;101784.00;5095752;28;20043;-69
2023/12/07 02:48:33;;;;;;;21.20;16.92;;;4.80;99.90;;;4.83;100.00;101787.13;5095761;28;20050;-68
2023/12/07 02:51:02;;;;;;;18.67;15.47;;;4.70;99.90;;;4.67;100.00;101790.06;5077680;28;20135;-69
2023/12/07 02:53:30;;;;;;;25.53;16.60;;;4.50;99.90;;;4.63;100.00;101793.44;5077697;28;20060;-68
2023/12/07 02:55:58;;;;;;;24.20;16.40;;;4.40;99.90;;;4.50;100.00;101771.16;5095688;28;20409;-68
2023/12/07 02:58:27;;;;;;;22.53;15.87;;;4.40;99.90;;;4.84;100.00;101792.41;5095465;28;20068;-68
2023/12/07 03:00:56;;;;;;;21.00;16.43;;;4.60;99.90;;;4.98;100.00;101792.84;5095428;28;20044;-68
2023/12/07 03:03:26;;;;;;;19.93;16.77;;;4.80;99.90;;;5.00;100.00;101806.91;5095425;28;20117;-68
2023/12/07 03:05:54;;;;;;;22.75;17.58;;;4.90;99.90;;;5.03;99.92;101802.66;5095244;28;20040;-68
2023/12/07 03:08:23;;;;;;;23.57;16.97;;;4.90;99.90;;;5.00;99.64;101793.81;5095403;28;20093;-69
2023/12/07 03:10:51;;;;;;;23.23;17.10;;;4.90;99.90;;;5.08;99.53;101792.31;5077171;28;20409;-69
2023/12/07 03:13:20;;;;;;;22.33;17.60;;;5.00;99.90;;;5.08;99.49;101789.69;5095626;28;20048;-68
2023/12/07 03:15:48;;;;;;;19.57;16.57;;;5.00;99.90;;;5.01;99.11;101774.63;5095204;28;20054;-68
2023/12/07 03:18:17;;;;;;;21.20;15.93;;;5.00;99.90;;;4.95;98.29;101775.31;5077207;28;20385;-68
2023/12/07 03:20:46;;;;;;;20.20;16.43;;;4.80;99.90;;;5.06;98.53;101792.28;5095397;28;20056;-69
2023/12/07 03:23:15;;;;;;;23.60;18.00;;;4.80;99.90;;;5.07;98.26;101793.19;5095404;28;20124;-68
2023/12/07 03:25:43;;;;;;;22.30;17.27;;;4.90;99.90;;;5.14;98.50;101792.53;5077169;28;20058;-68
2023/12/07 03:28:12;;;;;;;23.87;17.50;;;5.00;99.90;;;5.21;98.07;101794.50;5095093;28;20089;-68
2023/12/07 03:30:40;;;;;;;27.17;17.90;;;5.10;99.90;;;5.28;97.89;101799.09;5094916;28;20054;-68
2023/12/07 03:33:08;;;;;;;30.57;19.30;;;5.10;99.90;;;5.20;97.65;101792.72;5094894;28;20040;-68
2023/12/07 03:35:37;;;;;;;38.70;20.50;;;5.10;99.90;;;5.10;97.60;101790.66;5076864;28;20443;-68
2023/12/07 03:38:07;;;;;;;29.10;19.27;;;5.00;99.90;;;4.92;97.58;101769.06;5094764;28;20064;-69
2023/12/07 03:40:35;;;;;;;29.10;19.48;;;5.00;99.90;;;4.98;97.56;101787.63;5095050;28;20063;-69
2023/12/07 03:43:04;;;;;;;26.20;18.70;;;4.90;99.90;;;4.85;97.64;101785.44;5095230;28;20052;-68
2023/12/07 03:45:33;;;;;;;28.57;21.27;;;4.80;99.90;;;4.63;98.00;101783.81;5094894;28;20044;-68
2023/12/07 03:48:01;;;;;;;29.17;20.37;;;4.60;99.90;;;4.54;98.83;101784.41;5076667;28;20090;-68
2023/12/07 03:50:30;;;;;;;33.50;21.40;;;4.50;99.90;;;4.44;98.62;101792.78;5094529;28;20051;-69
2023/12/07 03:52:58;;;;;;;37.97;22.43;;;4.40;99.90;;;4.40;98.91;101784.75;5094777;28;20048;-69
2023/12/07 03:55:28;;;;;;;34.10;24.30;;;4.40;99.90;;;4.36;99.66;101782.88;5094426;28;20040;-69
2023/12/07 03:57:55;;;;;;;51.20;26.50;;;4.30;99.90;;;4.29;100.00;101791.34;5076718;28;20047;-69
2023/12/07 04:00:24;;;;;;;67.77;33.73;;;4.30;99.90;;;4.18;100.00;101770.00;5076529;28;20084;-68
2023/12/07 04:02:52;;;;;;;76.97;41.03;;;4.30;99.90;;;4.40;100.00;101785.66;5094509;28;20047;-69
2023/12/07 04:05:21;;;;;;;80.53;41.93;;;4.30;99.90;;;4.32;100.00;101784.50;5094242;28;20046;-69
2023/12/07 04:07:49;;;;;;;93.27;46.63;;;4.30;99.90;;;4.40;100.00;101788.28;5094716;28;20052;-69
2023/12/07 04:10:17;;;;;;;107.30;48.20;;;4.30;99.90;;;4.30;99.82;101791.41;5094132;28;20051;-68
2023/12/07 04:12:47;;;;;;;99.90;51.03;;;4.20;99.90;;;4.37;100.00;101780.34;5094363;28;20036;-68
2023/12/07 04:15:15;;;;;;;140.43;52.83;;;4.20;99.90;;;4.35;100.00;101779.38;5094065;28;20044;-69
2023/12/07 04:17:46;;;;;;;94.33;47.83;;;4.30;99.90;;;4.37;99.82;101784.66;5093939;28;20545;-69
2023/12/07 04:20:15;;;;;;;75.57;43.43;;;4.30;99.90;;;4.36;99.52;101783.78;5076098;28;20074;-69
2023/12/07 04:22:45;;;;;;;74.83;40.07;;;4.30;99.90;;;4.40;99.10;101774.28;5093251;28;20047;-69
2023/12/07 04:25:14;;;;;;;59.95;36.80;;;4.20;99.90;;;4.41;98.94;101776.94;5094146;28;20118;-69
2023/12/07 04:27:42;;;;;;;58.43;35.07;;;4.30;99.90;;;4.44;98.39;101779.69;5093767;28;20127;-68
2023/12/07 04:30:13;;;;;;;51.17;33.17;;;4.30;99.90;;;4.44;98.15;101774.47;5075834;28;20444;-69
2023/12/07 04:32:42;;;;;;;49.43;31.23;;;4.30;99.90;;;4.54;98.04;101780.91;5075888;28;20475;-68
2023/12/07 04:35:10;;;;;;;45.73;29.13;;;4.40;99.90;;;4.54;97.34;101767.81;5093729;28;20047;-68
2023/12/07 04:37:38;;;;;;;47.63;29.97;;;4.40;99.90;;;4.55;96.50;101777.44;5093888;28;20440;-68
2023/12/07 04:40:10;;;;;;;53.60;31.33;;;4.40;99.90;;;4.41;95.93;101781.31;5093784;28;20164;-68
2023/12/07 04:42:38;;;;;;;58.40;35.17;;;4.30;99.90;;;4.41;96.02;101781.31;5093588;28;20500;-68
2023/12/07 04:45:08;;;;;;;59.37;34.47;;;4.30;99.90;;;3.84;95.86;101719.94;5093800;28;20072;-69
2023/12/07 04:47:38;;;;;;;59.15;34.63;;;4.20;99.90;;;4.07;96.36;101746.91;5093431;28;20509;-69
2023/12/07 04:50:07;;;;;;;61.97;34.80;;;4.20;99.90;;;4.29;96.25;101792.25;5093452;28;20168;-69
2023/12/07 04:52:36;;;;;;;58.17;34.15;;;4.20;99.90;;;4.31;96.59;101787.06;5075610;28;20040;-68
2023/12/07 04:55:06;;;;;;;58.30;35.13;;;4.20;99.90;;;4.27;96.11;101779.94;5093204;28;20485;-69
2023/12/07 04:57:35;;;;;;;55.92;32.03;;;4.20;99.90;;;4.42;96.08;101794.47;5075332;28;20048;-68
2023/12/07 05:00:05;;;;;;;56.93;31.40;;;4.30;99.90;;;4.47;96.36;101792.88;5093666;28;20060;-68
2023/12/07 05:02:34;;;;;;;57.80;32.67;;;4.30;99.90;;;4.48;95.68;101773.72;5093488;28;20400;-68
2023/12/07 05:05:05;;;;;;;56.70;33.10;;;4.40;99.90;;;4.41;95.53;101776.09;5093364;28;20047;-68
2023/12/07 05:07:33;;;;;;;56.00;29.60;;;4.30;99.90;;;4.25;96.23;101782.50;5093087;28;20093;-69
2023/12/07 05:10:02;;;;;;;55.97;29.13;;;4.10;99.90;;;4.02;97.04;101778.19;5093288;28;20470;-68
2023/12/07 05:12:30;;;;;;;52.27;28.40;;;4.00;99.90;;;3.79;97.85;101784.28;5093028;28;20064;-69
2023/12/07 05:14:59;;;;;;;56.67;28.07;;;3.80;99.90;;;3.80;98.64;101778.22;5093266;28;20059;-68
2023/12/07 05:17:27;;;;;;;55.80;27.77;;;3.70;99.90;;;3.56;99.99;101774.69;5092950;28;20501;-68
2023/12/07 05:19:56;;;;;;;62.73;30.60;;;3.60;99.90;;;3.62;100.00;101767.94;5093093;28;20404;-68
2023/12/07 05:22:25;;;;;;;52.80;28.30;;;3.60;99.90;;;3.43;100.00;101754.09;5093376;28;20113;-69
2023/12/07 05:24:55;;;;;;;50.00;26.60;;;3.50;99.90;;;3.39;100.00;101758.34;5092921;28;20089;-69
2023/12/07 05:27:23;;;;;;;49.23;25.53;;;3.40;99.90;;;3.36;100.00;101749.50;5093328;28;20044;-69
2023/12/07 05:29:52;;;;;;;58.70;27.40;;;3.40;99.90;;;3.10;100.00;101744.94;5092941;28;20044;-68
2023/12/07 05:32:20;;;;;;;64.73;25.37;;;3.20;99.90;;;2.87;100.00;101748.38;5093273;28;20055;-69
2023/12/07 05:34:50;;;;;;;88.57;26.90;;;2.90;99.90;;;2.68;100.00;101755.47;5074819;28;20055;-69
2023/12/07 05:37:19;;;;;;;73.47;25.67;;;2.70;99.90;;;1.49;100.00;101587.72;5092954;28;20044;-69
2023/12/07 05:39:48;;;;;;;88.77;27.40;;;2.40;99.90;;;2.25;100.00;101749.28;5092954;28;20046;-68
2023/12/07 05:42:17;;;;;;;56.22;28.67;;;2.30;99.90;;;2.47;100.00;101756.28;5093470;28;20067;-68
2023/12/07 05:44:45;;;;;;;61.03;29.47;;;2.30;99.90;;;2.44;100.00;101756.19;5074704;28;20139;-69
2023/12/07 05:47:14;;;;;;;77.43;30.20;;;2.40;99.90;;;2.48;100.00;101751.13;5092496;28;20562;-69
2023/12/07 05:49:42;;;;;;;61.40;30.40;;;2.40;99.90;;;2.33;100.00;101752.22;5092533;28;20093;-68
2023/12/07 05:52:11;;;;;;;55.33;30.50;;;2.40;99.90;;;2.35;100.00;101751.44;5092547;28;20036;-69
2023/12/07 05:54:42;;;;;;;54.97;29.80;;;2.30;99.90;;;2.31;100.00;101749.53;5093053;28;20101;-68
2023/12/07 05:57:11;;;;;;;82.50;31.77;;;2.30;99.90;;;2.37;100.00;101752.41;5092527;28;20051;-68
2023/12/07 05:59:41;;;;;;;54.88;29.30;;;2.40;99.90;;;2.35;100.00;101745.34;5074282;28;20072;-68
2023/12/07 06:02:10;;;;;;;51.17;28.17;;;2.30;99.90;;;2.44;100.00;101754.44;5092644;28;20037;-69
2023/12/07 06:04:38;;;;;;;73.33;30.50;;;2.40;99.90;;;2.35;100.00;101756.66;5092645;28;20143;-69
2023/12/07 06:07:07;;;;;;;59.20;28.60;;;2.30;99.90;;;2.27;100.00;101744.09;5092358;28;20540;-69
2023/12/07 06:09:35;;;;;;;67.47;28.37;;;2.30;99.90;;;2.34;100.00;101747.03;5074737;28;20071;-69
2023/12/07 06:12:05;;;;;;;52.63;26.83;;;2.30;99.90;;;2.45;100.00;101737.06;5092244;28;20059;-68
2023/12/07 06:14:35;;;;;;;67.65;29.17;;;2.40;99.90;;;2.16;100.00;101738.44;5092300;28;20424;-68
2023/12/07 06:17:04;;;;;;;81.43;29.30;;;2.20;99.90;;;2.06;100.00;101751.00;5092822;28;20127;-69
2023/12/07 06:19:32;;;;;;;64.13;28.33;;;2.10;99.90;;;2.26;100.00;101751.06;5092214;28;20276;-69
2023/12/07 06:22:01;;;;;;;63.87;27.00;;;2.20;99.90;;;2.35;100.00;101751.44;5092257;28;20036;-69
2023/12/07 06:24:29;;;;;;;67.90;27.13;;;2.30;99.90;;;2.38;100.00;101750.69;5074241;28;20093;-68
2023/12/07 06:26:58;;;;;;;60.97;28.77;;;2.40;99.90;;;2.30;100.00;101752.09;5092160;28;20048;-68
2023/12/07 06:29:26;;;;;;;62.93;28.33;;;2.30;99.90;;;2.39;100.00;101742.94;5092454;28;20040;-69
2023/12/07 06:32:00;;;;;;;71.27;28.13;;;2.40;99.90;;;2.20;100.00;101747.28;5092217;28;20485;-69
2023/12/07 06:34:28;;;;;;;80.07;28.87;;;2.20;99.90;;;2.20;100.00;101739.47;5092225;28;20047;-69
2023/12/07 06:36:57;;;;;;;91.40;27.53;;;2.20;99.90;;;2.26;100.00;101752.78;5092368;28;20126;-69
2023/12/07 06:39:25;;;;;;;66.57;28.17;;;2.20;99.90;;;2.08;100.00;101755.47;5092057;28;20126;-69
2023/12/07 06:41:55;;;;;;;71.97;27.93;;;2.10;99.90;;;1.33;100.00;101645.19;5091999;28;20097;-69
2023/12/07 06:44:23;;;;;;;52.90;27.75;;;2.00;99.90;;;2.09;100.00;101751.16;5074329;28;20146;-69
2023/12/07 06:46:52;;;;;;;85.37;28.63;;;2.00;99.90;;;1.77;100.00;101752.34;5095706;28;20068;-69
2023/12/07 06:49:22;;;;;;;70.57;28.10;;;1.80;99.90;;;1.80;100.00;101742.06;5095703;28;20047;-70
2023/12/07 06:51:59;;;;;;;84.23;27.07;;;1.80;99.90;;;1.61;100.00;101755.06;5095932;28;20627;-69
2023/12/07 06:54:27;;;;;;;80.83;27.67;;;1.60;99.90;;;1.54;100.00;101713.91;5095708;28;20074;-69
2023/12/07 06:56:56;;;;;;;80.00;27.30;;;1.70;99.90;;;1.66;100.00;101728.41;5095520;28;20501;-69
2023/12/07 06:59:24;;;;;;;101.63;26.60;;;1.70;99.90;;;1.70;100.00;101748.56;5095473;28;20044;-69
2023/12/07 07:01:52;;;;;;;181.87;31.13;;;1.70;99.90;;;1.81;100.00;101749.94;5077702;28;20450;-69
2023/12/07 07:04:22;;;;;;;98.27;28.73;;;1.80;99.90;;;1.95;100.00;101736.63;5095309;28;20033;-69
2023/12/07 07:06:52;;;;;;;104.40;29.33;;;1.90;99.90;;;1.88;100.00;101725.00;5077527;28;20479;-68
2023/12/07 07:09:21;;;;;;;117.47;30.27;;;2.00;99.90;;;1.63;100.00;101649.16;5095187;28;20040;-69
2023/12/07 07:11:49;;;;;;;126.13;32.03;;;2.10;99.90;;;1.99;100.00;101721.19;5095321;28;20048;-69
2023/12/07 07:14:18;;;;;;;143.23;33.03;;;2.10;99.90;;;2.03;100.00;101730.03;5095697;28;20114;-70
2023/12/07 07:16:46;;;;;;;146.80;33.47;;;2.00;99.90;;;1.98;100.00;101731.53;5095070;28;20044;-69
2023/12/07 07:19:16;;;;;;;108.77;32.73;;;2.00;99.90;;;1.99;100.00;101734.22;5077037;28;20485;-72
2023/12/07 07:21:46;;;;;;;207.80;33.60;;;1.90;99.90;;;1.87;100.00;101738.91;5095353;28;20059;-68
2023/12/07 07:24:15;;;;;;;159.88;33.00;;;1.90;99.90;;;2.08;100.00;101732.00;5095504;28;20044;-67
2023/12/07 07:26:44;;;;;;;161.73;34.60;;;2.00;99.90;;;2.00;100.00;101741.22;5095768;28;20068;-68
2023/12/07 07:29:12;;;;;;;142.67;33.40;;;2.00;99.90;;;1.93;100.00;101744.38;5094929;28;20040;-62
2023/12/07 07:31:41;;;;;;;95.80;32.27;;;2.00;99.90;;;1.92;100.00;101747.81;5095408;28;20048;-63
2023/12/07 07:34:09;;;;;;;107.00;32.00;;;1.90;99.90;;;1.96;100.00;101749.72;5094872;28;20055;-67
2023/12/07 07:36:38;;;;;;;136.93;32.83;;;2.00;99.90;;;1.98;100.00;101745.47;5095054;28;20078;-66
2023/12/07 07:39:08;;;;;;;88.13;31.70;;;2.00;99.90;;;2.00;100.00;101741.22;5095018;28;20052;-70
2023/12/07 07:41:36;;;;;;;145.70;33.30;;;2.00;99.90;;;1.92;100.00;101733.88;5094636;28;20394;-69
2023/12/07 07:44:05;;;;;;;103.70;34.07;;;2.00;99.90;;;2.14;100.00;101744.41;5094676;28;20138;-65
2023/12/07 07:46:33;;;;;;;111.53;33.50;;;2.10;99.90;;;2.16;100.00;101750.59;5094846;28;20445;-64
2023/12/07 07:49:03;;;;;;;186.07;39.17;;;2.20;99.90;;;2.26;100.00;101750.16;5076547;28;20481;-69
2023/12/07 07:51:32;;;;;;;;;;;2.20;99.90;;;2.09;100.00;101764.22;5095007;28;20488;-68
2023/12/07 07:54:00;;;;;;;152.50;34.30;;;2.10;99.90;;;2.15;100.00;101754.03;5076558;28;20361;-67
2023/12/07 07:56:30;;;;;;;149.30;34.17;;;2.10;99.90;;;2.16;100.00;101747.97;5093306;28;20566;-68
2023/12/07 07:59:00;;;;;;;117.05;34.08;;;2.20;99.90;;;2.17;100.00;101755.00;5094649;28;20037;-68
2023/12/07 08:01:30;;;;;;;243.80;38.53;;;2.20;99.90;;;2.03;100.00;101738.75;5094313;28;20040;-68
2023/12/07 08:04:03;;;;;;;175.03;34.87;;;2.20;99.90;;;2.08;100.00;101739.81;5094942;28;20081;-66
2023/12/07 08:06:36;;;;;;;150.23;34.63;;;2.20;99.90;;;2.22;100.00;101749.16;5075884;28;20048;-68
2023/12/07 08:09:06;;;;;;;117.67;33.73;;;2.20;99.90;;;2.25;100.00;101744.06;5094125;28;20037;-65
2023/12/07 08:11:35;;;;;;;123.43;34.00;;;2.20;99.90;;;2.26;100.00;101745.84;5094081;28;20050;-69
2023/12/07 08:14:04;;;;;;;177.85;36.42;;;2.20;99.90;;;1.98;100.00;101710.66;5094374;28;20048;-69
2023/12/07 08:16:32;;;;;;;125.30;34.87;;;2.20;99.90;;;2.15;100.00;101747.09;5093883;28;20040;-69
2023/12/07 08:19:00;;;;;;;129.30;34.80;;;2.20;99.90;;;2.27;100.00;101746.72;5094170;28;20040;-68
2023/12/07 08:21:30;;;;;;;177.93;37.33;;;2.20;99.90;;;2.33;100.00;101752.22;5093795;28;20040;-69
2023/12/07 08:23:59;;;;;;;158.23;36.47;;;2.30;99.90;;;2.25;100.00;101754.50;5093989;28;20093;-69
2023/12/07 08:26:27;;;;;;;156.90;35.90;;;2.30;99.90;;;2.23;100.00;101745.69;5094340;28;20172;-69
2023/12/07 08:28:57;;;;;;;165.40;37.03;;;2.20;99.90;;;2.33;100.00;101742.66;5094241;28;20063;-71
2023/12/07 08:31:25;;;;;;;99.65;33.38;;;2.30;99.90;;;2.21;100.00;101747.34;5094029;28;20052;-70
2023/12/07 08:33:54;;;;;;;101.67;34.47;;;2.20;99.90;;;2.36;100.00;101748.00;5093993;28;20044;-68
2023/12/07 08:36:22;;;;;;;91.70;32.50;;;2.30;99.90;;;2.26;100.00;101753.69;5093657;28;20044;-68
2023/12/07 08:38:52;;;;;;;113.03;33.27;;;2.30;99.90;;;2.33;100.00;101754.81;5093626;28;20055;-68
2023/12/07 08:41:20;;;;;;;173.30;36.17;;;2.30;99.90;;;2.31;100.00;101739.09;5093890;28;20055;-68
2023/12/07 08:43:49;;;;;;;113.23;34.73;;;2.40;99.90;;;2.33;100.00;101753.09;5094068;28;20290;-68
2023/12/07 08:46:19;;;;;;;139.00;36.07;;;2.30;99.90;;;2.40;100.00;101744.69;5093676;28;20124;-68
2023/12/07 08:48:47;;;;;;;131.55;37.65;;;2.40;99.90;;;2.53;100.00;101733.97;5093949;28;20134;-68
2023/12/07 08:51:16;;;;;;;200.63;39.17;;;2.50;99.90;;;2.50;100.00;101727.69;5093632;28;20058;-68
2023/12/07 08:53:44;;;;;;;161.43;37.40;;;2.50;99.90;;;2.53;100.00;101728.75;5093385;28;20097;-68
2023/12/07 08:56:15;;;;;;;117.70;35.07;;;2.50;99.90;;;2.58;100.00;101745.47;5093554;28;20236;-69
2023/12/07 08:58:44;;;;;;;147.80;39.07;;;2.60;99.90;;;2.66;100.00;101744.06;5093196;28;20059;-69
2023/12/07 09:01:12;;;;;;;118.80;39.27;;;2.60;99.90;;;2.59;100.00;101747.25;5075295;28;20393;-69
2023/12/07 09:03:59;;;;;;;112.47;39.87;;;2.60;99.90;;;2.45;100.00;101740.56;5093253;28;20443;-69
2023/12/07 09:06:27;;;;;;;135.50;41.22;;;2.60;99.90;;;2.75;100.00;101746.16;5093242;28;20135;-69
2023/12/07 09:08:56;;;;;;;101.83;39.20;;;2.70;99.90;;;2.64;100.00;101744.84;5092926;28;20044;-69
2023/12/07 09:11:25;;;;;;;100.83;40.20;;;2.80;99.90;;;2.64;100.00;101748.34;5075203;28;20051;-70
2023/12/07 09:13:53;;;;;;;105.67;40.13;;;2.70;99.90;;;2.61;100.00;101745.59;5093043;28;20463;-68
2023/12/07 09:16:22;;;;;;;99.13;39.83;;;2.70;99.90;;;2.68;100.00;101734.59;5093019;28;20048;-69
2023/12/07 09:18:51;;;;;;;111.63;44.50;;;2.60;99.90;;;2.62;100.00;101726.50;5092948;28;20416;-69
2023/12/07 09:21:21;;;;;;;103.73;42.67;;;2.60;99.90;;;2.62;100.00;101720.38;5092898;28;20382;-70
2023/12/07 09:23:49;;;;;;;108.28;41.95;;;2.70;99.90;;;2.68;100.00;101718.91;5092403;28;20385;-70
2023/12/07 09:26:17;;;;;;;122.00;45.23;;;2.70;99.90;;;2.75;100.00;101713.09;5092867;28;20040;-70
2023/12/07 09:28:46;;;;;;;107.20;43.17;;;2.70;99.90;;;2.71;100.00;101739.91;5092803;28;20089;-69
2023/12/07 09:31:16;;;;;;;104.57;43.90;;;2.70;99.90;;;2.53;100.00;101686.97;5093327;28;20050;-68
2023/12/07 09:33:47;;;;;;;118.37;46.03;;;2.70;99.90;;;2.83;100.00;101715.16;5092933;28;20401;-69
2023/12/07 09:36:18;;;;;;;113.63;45.70;;;2.80;99.90;;;2.81;100.00;101701.13;5094115;28;20072;-69
2023/12/07 09:38:48;;;;;;;113.67;46.47;;;2.80;99.90;;;2.90;100.00;101710.22;5092994;28;20040;-68
2023/12/07 09:41:17;;;;;;;107.38;45.92;;;2.80;99.90;;;3.00;100.00;101698.41;5092786;28;20055;-67
2023/12/07 09:43:46;;;;;;;106.80;43.83;;;2.90;99.90;;;3.06;100.00;101694.31;5092676;28;20115;-68
2023/12/07 09:46:15;;;;;;;109.40;45.27;;;3.00;99.90;;;3.11;100.00;101686.66;5093101;28;20504;-70
2023/12/07 09:48:45;;;;;;;103.35;44.38;;;3.10;99.90;;;3.13;100.00;101683.28;5092596;28;20040;-70
2023/12/07 09:51:16;;;;;;;109.57;43.97;;;3.10;99.90;;;3.13;100.00;101714.63;5093151;28;20048;-70
2023/12/07 09:53:49;;;;;;;107.43;45.60;;;3.10;99.90;;;3.00;100.00;101649.63;5092614;28;20044;-70
2023/12/07 09:56:18;;;;;;;105.53;46.40;;;3.20;99.90;;;3.17;100.00;101684.28;5092482;28;20044;-70
2023/12/07 09:58:46;;;;;;;107.77;44.07;;;3.10;99.90;;;3.06;100.00;101701.28;5092705;28;20051;-70
2023/12/07 10:01:15;;;;;;;97.87;43.50;;;3.00;99.90;;;3.05;100.00;101687.31;5092444;28;20119;-70
2023/12/07 10:03:46;;;;;;;104.70;43.73;;;3.00;99.90;;;3.23;100.00;101681.91;5092695;28;20048;-70
2023/12/07 10:06:16;;;;;;;102.00;43.53;;;3.10;99.90;;;3.36;100.00;101678.91;5092578;28;20052;-68
2023/12/07 10:08:46;;;;;;;89.33;39.53;;;3.30;99.90;;;3.03;100.00;101646.25;5093055;28;20044;-70
2023/12/07 10:11:18;;;;;;;88.17;41.90;;;3.20;99.90;;;3.19;100.00;101674.75;5092700;28;20048;-70
2023/12/07 10:13:47;;;;;;;88.53;42.07;;;3.20;99.90;;;3.33;100.00;101668.34;5093024;28;20044;-70
2023/12/07 10:16:18;;;;;;;96.07;42.87;;;3.20;99.90;;;3.10;100.00;101654.38;5092639;28;20055;-70